createdAt,value
2023-05-03T00:03:35.549Z,0.00
2023-05-03T00:08:35.481Z,0.00
2023-05-03T00:13:35.409Z,0.00
2023-05-03T00:18:35.353Z,0.00
2023-05-03T00:23:35.288Z,0.00
2023-05-03T00:28:35.223Z,0.00
2023-05-03T00:33:35.158Z,0.00
2023-05-03T00:38:35.094Z,0.00
2023-05-03T00:43:35.031Z,0.00
2023-05-03T00:48:34.962Z,0.00
2023-05-03T00:53:34.904Z,0.00
2023-05-03T00:58:34.831Z,0.00
2023-05-03T01:03:34.909Z,0.00
2023-05-03T01:08:34.697Z,0.00
2023-05-03T01:13:34.631Z,0.00
2023-05-03T01:18:34.572Z,0.00
2023-05-03T01:23:34.508Z,0.00
2023-05-03T01:28:34.436Z,0.00
2023-05-03T01:33:34.362Z,0.00
2023-05-03T01:38:34.310Z,0.00
2023-05-03T01:43:34.232Z,0.00
2023-05-03T01:48:34.176Z,0.00
2023-05-03T01:53:34.109Z,0.00
2023-05-03T01:58:34.044Z,0.00
2023-05-03T02:03:33.969Z,0.00
2023-05-03T02:08:33.914Z,0.00
2023-05-03T02:13:33.842Z,0.00
2023-05-03T02:18:33.781Z,0.00
2023-05-03T02:23:33.707Z,0.00
2023-05-03T02:28:33.803Z,0.00
2023-05-03T02:33:33.578Z,0.00
2023-05-03T02:38:33.777Z,0.00
2023-05-03T02:43:33.443Z,0.00
2023-05-03T02:48:33.393Z,0.00
2023-05-03T02:53:33.309Z,0.00
2023-05-03T02:58:33.267Z,0.00
2023-05-03T03:03:33.300Z,0.00
2023-05-03T03:08:33.138Z,0.00
2023-05-03T03:13:33.057Z,0.00
2023-05-03T03:18:32.998Z,0.00
2023-05-03T03:23:32.925Z,0.00
2023-05-03T03:28:32.865Z,0.00
2023-05-03T03:33:32.800Z,5.62
2023-05-03T03:38:32.734Z,5.62
2023-05-03T03:43:32.661Z,11.25
2023-05-03T03:48:32.603Z,16.87
2023-05-03T03:53:32.529Z,28.12
2023-05-03T03:58:32.477Z,39.37
2023-05-03T04:03:32.460Z,50.62
2023-05-03T04:08:32.327Z,73.12
2023-05-03T04:13:32.270Z,90.00
2023-05-03T04:18:32.209Z,118.12
2023-05-03T04:23:32.146Z,135.00
2023-05-03T04:28:32.067Z,168.75
2023-05-03T04:33:32.004Z,213.75
2023-05-03T04:38:31.929Z,275.62
2023-05-03T04:43:31.869Z,315.00
2023-05-03T04:48:31.804Z,365.62
2023-05-03T04:53:31.736Z,506.25
2023-05-03T04:58:31.690Z,500.62
2023-05-03T05:03:31.799Z,607.50
2023-05-03T05:08:31.529Z,742.50
2023-05-03T05:13:31.465Z,810.00
2023-05-03T05:18:31.452Z,849.37
2023-05-03T05:23:31.400Z,883.12
2023-05-03T05:28:31.266Z,708.75
2023-05-03T05:33:31.317Z,956.25
2023-05-03T05:38:31.138Z,1051.87
2023-05-03T05:43:31.076Z,1051.87
2023-05-03T05:48:31.007Z,1096.87
2023-05-03T05:53:30.978Z,1350.00
2023-05-03T05:58:30.872Z,1423.12
2023-05-03T06:03:30.865Z,1687.50
2023-05-03T06:08:30.743Z,1901.25
2023-05-03T06:13:30.684Z,2193.75
2023-05-03T06:18:30.613Z,3341.25
2023-05-03T06:23:30.551Z,2885.62
2023-05-03T06:28:30.484Z,3346.87
2023-05-03T06:33:30.438Z,3926.25
2023-05-03T06:38:30.361Z,4044.37
2023-05-03T06:43:30.310Z,4471.87
2023-05-03T06:48:30.266Z,3920.62
2023-05-03T06:53:30.167Z,4443.75
2023-05-03T06:58:30.089Z,3948.75
2023-05-03T07:03:30.136Z,4747.50
2023-05-03T07:08:29.957Z,4770.00
2023-05-03T07:13:29.889Z,4803.75
2023-05-03T07:18:29.821Z,4601.25
2023-05-03T07:23:29.765Z,4590.00
2023-05-03T07:28:29.698Z,5096.25
2023-05-03T07:33:29.703Z,4860.00
2023-05-03T07:38:29.565Z,5433.75
2023-05-03T07:43:29.511Z,5445.00
2023-05-03T07:48:29.421Z,3110.62
2023-05-03T07:53:29.372Z,4336.87
2023-05-03T07:58:40.073Z,4708.12
2023-05-03T08:03:30.448Z,5276.25
2023-05-03T08:08:29.162Z,4590.00
2023-05-03T08:13:29.130Z,5248.12
2023-05-03T08:18:29.066Z,5529.37
2023-05-03T08:23:29.016Z,5259.37
2023-05-03T08:28:28.918Z,5034.37
2023-05-03T08:33:28.848Z,5326.87
2023-05-03T08:38:28.797Z,4455.00
2023-05-03T08:43:28.816Z,5799.37
2023-05-03T08:48:30.629Z,5490.00
2023-05-03T08:53:28.588Z,4348.12
2023-05-03T08:58:28.530Z,4989.37
2023-05-03T09:03:28.621Z,1029.37
2023-05-03T09:08:28.381Z,3751.87
2023-05-03T09:13:28.323Z,4770.00
2023-05-03T09:18:28.246Z,5146.87
2023-05-03T09:23:28.207Z,4803.75
2023-05-03T09:28:28.177Z,4966.87
2023-05-03T09:33:28.066Z,4938.75
2023-05-03T09:38:28.031Z,1215.00
2023-05-03T09:43:27.930Z,1316.25
2023-05-03T09:48:27.868Z,1350.00
2023-05-03T09:53:27.807Z,4381.87
2023-05-03T09:58:27.741Z,4314.37
2023-05-03T10:03:27.697Z,4044.37
2023-05-03T10:08:27.615Z,4258.12
2023-05-03T10:13:27.544Z,4168.12
2023-05-03T10:18:27.554Z,3003.75
2023-05-03T10:23:27.413Z,2070.00
2023-05-03T10:28:27.351Z,3583.12
2023-05-03T10:33:27.278Z,1305.00
2023-05-03T10:38:27.214Z,3864.37
2023-05-03T10:43:27.146Z,3521.25
2023-05-03T10:48:27.068Z,3335.62
2023-05-03T10:53:27.016Z,1423.12
2023-05-03T10:58:27.052Z,1057.50
2023-05-03T11:03:26.878Z,860.62
2023-05-03T11:08:26.799Z,2728.12
2023-05-03T11:13:26.827Z,2790.00
2023-05-03T11:18:26.709Z,1715.62
2023-05-03T11:23:26.642Z,2581.87
2023-05-03T11:28:26.576Z,2345.62
2023-05-03T11:33:26.475Z,1580.62
2023-05-03T11:38:26.402Z,1462.50
2023-05-03T11:43:26.354Z,1350.00
2023-05-03T11:48:26.359Z,1147.50
2023-05-03T11:53:26.239Z,776.25
2023-05-03T11:58:26.161Z,776.25
2023-05-03T12:03:30.666Z,675.00
2023-05-03T12:08:26.658Z,613.12
2023-05-03T12:13:26.346Z,579.37
2023-05-03T12:18:26.034Z,556.87
2023-05-03T12:23:26.679Z,495.00
2023-05-03T12:28:26.038Z,455.62
2023-05-03T12:33:28.179Z,438.75
2023-05-03T12:38:25.835Z,455.62
2023-05-03T12:43:25.639Z,483.75
2023-05-03T12:48:25.813Z,461.25
2023-05-03T12:53:26.142Z,455.62
2023-05-03T12:58:52.943Z,444.37
2023-05-03T13:03:32.709Z,461.25
2023-05-03T13:08:33.079Z,416.25
2023-05-03T13:13:25.196Z,410.62
2023-05-03T13:18:25.154Z,376.87
2023-05-03T13:23:25.085Z,416.25
2023-05-03T13:28:25.007Z,416.25
2023-05-03T13:33:25.020Z,433.12
2023-05-03T13:38:24.849Z,421.87
2023-05-03T13:43:24.791Z,399.37
2023-05-03T13:48:24.747Z,416.25
2023-05-03T13:53:24.673Z,416.25
2023-05-03T13:58:24.595Z,416.25
2023-05-03T14:03:24.615Z,410.62
2023-05-03T14:08:24.452Z,405.00
2023-05-03T14:13:24.495Z,388.12
2023-05-03T14:18:24.341Z,382.50
2023-05-03T14:23:24.265Z,376.87
2023-05-03T14:28:24.183Z,371.25
2023-05-03T14:33:24.121Z,360.00
2023-05-03T14:38:24.049Z,354.37
2023-05-03T14:43:23.995Z,348.75
2023-05-03T14:48:23.920Z,343.12
2023-05-03T14:53:23.855Z,331.87
2023-05-03T14:58:23.795Z,331.87
2023-05-03T15:03:23.775Z,320.62
2023-05-03T15:08:23.806Z,315.00
2023-05-03T15:13:24.004Z,315.00
2023-05-03T15:18:23.899Z,315.00
2023-05-03T15:23:23.468Z,303.75
2023-05-03T15:28:23.490Z,292.50
2023-05-03T15:33:23.361Z,298.12
2023-05-03T15:38:23.253Z,292.50
2023-05-03T15:43:23.200Z,286.87
2023-05-03T15:48:23.127Z,258.75
2023-05-03T15:53:23.085Z,241.87
2023-05-03T15:58:22.997Z,281.25
2023-05-03T16:03:22.952Z,247.50
2023-05-03T16:08:22.874Z,253.12
2023-05-03T16:13:22.832Z,247.50
2023-05-03T16:18:22.759Z,258.75
2023-05-03T16:23:22.690Z,241.87
2023-05-03T16:28:22.619Z,241.87
2023-05-03T16:33:22.565Z,236.25
2023-05-03T16:38:22.492Z,247.50
2023-05-03T16:43:22.431Z,253.12
2023-05-03T16:48:22.405Z,236.25
2023-05-03T16:53:22.339Z,225.00
2023-05-03T16:58:22.230Z,213.75
2023-05-03T17:03:22.421Z,196.87
2023-05-03T17:08:22.105Z,196.87
2023-05-03T17:13:22.045Z,174.37
2023-05-03T17:18:21.977Z,174.37
2023-05-03T17:23:21.918Z,163.12
2023-05-03T17:28:21.853Z,163.12
2023-05-03T17:33:21.788Z,151.87
2023-05-03T17:38:21.715Z,135.00
2023-05-03T17:43:21.660Z,129.37
2023-05-03T17:48:21.588Z,118.12
2023-05-03T17:53:21.534Z,101.25
2023-05-03T17:58:21.466Z,84.37
2023-05-03T18:03:21.511Z,73.12
2023-05-03T18:08:21.337Z,61.87
2023-05-03T18:13:21.356Z,50.62
2023-05-03T18:18:21.204Z,39.37
2023-05-03T18:23:21.152Z,28.12
2023-05-03T18:28:21.077Z,22.50
2023-05-03T18:33:21.023Z,11.25
2023-05-03T18:38:20.945Z,5.62
2023-05-03T18:43:20.890Z,5.62
2023-05-03T18:48:20.822Z,0.00
2023-05-03T18:53:20.761Z,0.00
2023-05-03T18:58:20.683Z,0.00
2023-05-03T19:03:20.655Z,0.00
2023-05-03T19:08:20.561Z,0.00
2023-05-03T19:13:20.544Z,0.00
2023-05-03T19:18:20.425Z,0.00
2023-05-03T19:23:20.361Z,0.00
2023-05-03T19:28:20.289Z,0.00
2023-05-03T19:33:20.246Z,0.00
2023-05-03T19:38:20.159Z,0.00
2023-05-03T19:43:20.103Z,0.00
2023-05-03T19:48:20.034Z,0.00
2023-05-03T19:53:19.995Z,0.00
2023-05-03T19:58:19.896Z,0.00
2023-05-03T20:03:19.978Z,0.00
2023-05-03T20:08:19.763Z,0.00
2023-05-03T20:13:19.750Z,0.00
2023-05-03T20:18:19.631Z,0.00
2023-05-03T20:23:19.567Z,0.00
2023-05-03T20:28:19.552Z,0.00
2023-05-03T20:33:19.446Z,0.00
2023-05-03T20:38:19.386Z,0.00
2023-05-03T20:43:19.308Z,0.00
2023-05-03T20:48:19.273Z,0.00
2023-05-03T20:53:19.188Z,0.00
2023-05-03T20:58:19.130Z,0.00
2023-05-03T21:03:19.197Z,0.00
2023-05-03T21:08:18.984Z,0.00
2023-05-03T21:13:19.039Z,0.00
2023-05-03T21:18:18.854Z,0.00
2023-05-03T21:23:18.776Z,0.00
2023-05-03T21:28:18.723Z,0.00
2023-05-03T21:33:18.692Z,0.00
2023-05-03T21:38:18.592Z,0.00
2023-05-03T21:43:18.534Z,0.00
2023-05-03T21:48:18.473Z,0.00
2023-05-03T21:53:18.391Z,0.00
2023-05-03T21:58:18.329Z,0.00
2023-05-03T22:03:18.358Z,0.00
2023-05-03T22:08:18.253Z,0.00
2023-05-03T22:13:18.139Z,0.00
2023-05-03T22:18:18.070Z,0.00
2023-05-03T22:23:18.015Z,0.00
2023-05-03T22:28:17.930Z,0.00
2023-05-03T22:33:17.902Z,0.00
2023-05-03T22:38:17.803Z,0.00
2023-05-03T22:43:17.730Z,0.00
2023-05-03T22:48:17.676Z,0.00
2023-05-03T22:53:17.599Z,0.00
2023-05-03T22:58:17.540Z,0.00
2023-05-03T23:03:17.548Z,0.00
2023-05-03T23:08:17.412Z,0.00
2023-05-03T23:13:17.444Z,0.00
2023-05-03T23:18:17.280Z,0.00
2023-05-03T23:23:17.216Z,0.00
2023-05-03T23:28:17.159Z,0.00
2023-05-03T23:33:17.098Z,0.00
2023-05-03T23:38:17.041Z,0.00
2023-05-03T23:43:16.954Z,0.00
2023-05-03T23:48:16.881Z,0.00
2023-05-03T23:53:16.812Z,0.00
2023-05-03T23:58:16.762Z,0.00
